Time;durP1;ratioP1;P1;durP2;ratioP2;P2;SDS_P1;SDS_P2;PMS_P1;PMS_P2;Temp;Humidity;BMP_temperature;BMP_pressure;BME280_temperature;BME280_humidity;BME280_pressure;Samples;Min_cycle;Max_cycle;Signal;HPM_P1;HPM_P2
2022/12/07 00:01:38;;;;;;;13.00;6.80;;;;;;;4.38;90.19;100080.56;4966785;28;20050;-91
2022/12/07 00:04:06;;;;;;;11.60;6.85;;;;;;;4.36;89.95;100091.16;4980763;28;20047;-90
2022/12/07 00:06:36;;;;;;;12.60;6.75;;;;;;;4.34;89.78;100093.03;4984272;28;20047;-91
2022/12/07 00:09:04;;;;;;;13.07;6.97;;;;;;;4.42;89.32;100096.06;4948368;28;20105;-91
2022/12/07 00:11:30;;;;;;;11.70;6.78;;;;;;;4.36;89.51;100085.91;4947086;28;20105;-91
2022/12/07 00:14:00;;;;;;;11.65;6.65;;;;;;;4.30;89.06;100091.50;4982386;28;20053;-91
2022/12/07 00:16:29;;;;;;;11.95;6.75;;;;;;;4.24;88.89;100084.00;4969394;28;20110;-89
2022/12/07 00:18:56;;;;;;;12.15;7.10;;;;;;;4.20;88.68;100088.59;4985266;28;20061;-91
2022/12/07 00:21:26;;;;;;;10.82;5.80;;;;;;;4.12;88.41;100089.03;4984619;28;20073;-90
2022/12/07 00:23:55;;;;;;;9.63;6.05;;;;;;;4.12;88.62;100086.41;4972295;28;20074;-90
2022/12/07 00:26:30;;;;;;;14.35;6.60;;;;;;;4.04;88.10;100082.50;4957880;28;20038;-90
2022/12/07 00:29:02;;;;;;;13.23;6.20;;;;;;;4.00;88.09;100073.97;4952055;28;20497;-91
2022/12/07 00:31:33;;;;;;;13.43;6.85;;;;;;;4.03;88.01;100070.31;4954292;28;20039;-91
2022/12/07 00:34:00;;;;;;;11.52;6.95;;;;;;;3.97;88.58;100068.91;4974924;28;20058;-91
2022/12/07 00:36:27;;;;;;;12.98;7.38;;;;;;;3.99;88.02;100061.75;4972969;28;20138;-91
2022/12/07 00:38:54;;;;;;;11.10;6.20;;;;;;;3.96;88.03;100061.09;4987774;28;20047;-90
2022/12/07 00:41:23;;;;;;;10.93;6.30;;;;;;;3.92;88.00;100063.91;4986251;28;20126;-90
2022/12/07 00:43:51;;;;;;;11.13;7.20;;;;;;;3.93;88.02;100070.00;4955161;28;20508;-91
2022/12/07 00:46:18;;;;;;;11.15;6.68;;;;;;;3.94;87.58;100069.03;4974428;28;20042;-90
2022/12/07 00:48:46;;;;;;;12.38;6.75;;;;;;;3.94;88.22;100076.94;4935902;28;20140;-90
2022/12/07 00:51:14;;;;;;;9.25;5.95;;;;;;;3.92;88.16;100076.19;4969997;28;20050;-90
2022/12/07 00:53:41;;;;;;;11.35;6.68;;;;;;;3.85;88.16;100066.97;4939518;28;20738;-90
2022/12/07 00:56:13;;;;;;;11.27;6.15;;;;;;;3.77;87.76;100072.66;4969248;28;20398;-90
2022/12/07 00:58:39;;;;;;;11.02;5.88;;;;;;;3.80;88.15;100074.25;4963035;28;20057;-90
2022/12/07 01:01:07;;;;;;;11.63;6.38;;;;;;;3.87;88.45;100073.81;4979522;28;20100;-90
2022/12/07 01:03:34;;;;;;;11.65;7.20;;;;;;;3.86;88.78;100081.78;4973081;28;20556;-90
2022/12/07 01:06:02;;;;;;;11.23;6.35;;;;;;;3.93;88.81;100077.88;4965921;28;20093;-88
2022/12/07 01:08:29;;;;;;;12.45;7.03;;;;;;;3.89;89.22;100066.72;4965197;28;20495;-91
2022/12/07 01:11:00;;;;;;;13.05;6.78;;;;;;;3.90;88.90;100073.66;4966975;28;20678;-91
2022/12/07 01:13:28;;;;;;;13.40;7.30;;;;;;;3.93;89.09;100070.00;4979421;28;20477;-90
2022/12/07 01:15:59;;;;;;;12.45;6.25;;;;;;;3.93;88.75;100075.25;4960610;28;20461;-90
2022/12/07 01:18:28;;;;;;;14.07;7.45;;;;;;;3.97;89.33;100063.63;4996553;28;20050;-90
2022/12/07 01:21:00;;;;;;;11.45;7.20;;;;;;;4.02;89.39;100063.34;4955829;28;20046;-91
2022/12/07 01:23:28;;;;;;;14.35;7.30;;;;;;;3.95;89.87;100062.88;4941662;28;20050;-90
2022/12/07 01:25:59;;;;;;;14.43;7.03;;;;;;;3.98;89.60;100075.84;4965937;28;20062;-89
2022/12/07 01:28:26;;;;;;;11.18;6.68;;;;;;;3.96;90.01;100071.59;4949166;28;20126;-90
2022/12/07 01:31:15;;;;;;;15.18;7.97;;;;;;;3.85;89.79;100072.22;4945431;28;20050;-90
2022/12/07 01:33:50;;;;;;;13.80;7.07;;;;;;;3.93;89.78;100067.38;4992371;28;20050;-90
2022/12/07 01:36:22;;;;;;;12.63;7.85;;;;;;;3.90;89.55;100062.28;4949738;28;20073;-90
2022/12/07 01:38:52;;;;;;;12.30;6.73;;;;;;;3.91;89.67;100061.34;4967298;28;20049;-90
2022/12/07 01:41:20;;;;;;;17.35;8.45;;;;;;;3.97;89.71;100062.78;4941780;28;20096;-91
2022/12/07 01:44:24;;;;;;;13.77;8.40;;;;;;;3.85;89.90;100072.22;4967839;28;20532;-91
2022/12/07 01:46:57;;;;;;;;;;;;;;;3.82;90.38;100089.00;4978021;28;20051;-90
2022/12/07 01:49:38;;;;;;;10.75;6.05;;;;;;;3.79;89.13;100094.44;4976334;28;19921;-90
2022/12/07 01:52:15;;;;;;;11.63;7.00;;;;;;;3.79;89.04;100080.44;4942316;28;20050;-90
2022/12/07 01:54:44;;;;;;;13.23;6.40;;;;;;;3.78;89.82;100078.75;4989013;28;20494;-90
2022/12/07 01:57:11;;;;;;;12.93;6.80;;;;;;;3.84;90.11;100081.00;4975971;28;20218;-90
2022/12/07 01:59:38;;;;;;;12.90;6.63;;;;;;;3.87;89.95;100078.25;4982562;28;20046;-90
2022/12/07 02:02:09;;;;;;;12.40;6.47;;;;;;;3.89;90.03;100073.72;4948242;28;20110;-90
2022/12/07 02:04:36;;;;;;;13.35;7.47;;;;;;;3.91;90.19;100069.22;4932844;28;20375;-90
2022/12/07 02:07:04;;;;;;;10.88;6.40;;;;;;;3.96;90.17;100066.34;4914728;28;20046;-90
2022/12/07 02:09:31;;;;;;;14.30;7.40;;;;;;;3.95;90.79;100069.91;4947678;28;20058;-90
2022/12/07 02:11:58;;;;;;;13.48;7.30;;;;;;;3.96;90.45;100061.94;4936449;28;20493;-91
2022/12/07 02:14:24;;;;;;;17.13;8.15;;;;;;;3.94;90.94;100052.44;4951668;28;20053;-90
2022/12/07 02:16:58;;;;;;;17.95;8.40;;;;;;;4.00;90.57;100070.50;4969892;28;20050;-89
2022/12/07 02:20:05;;;;;;;20.83;9.60;;;;;;;3.97;90.35;100070.66;4981470;28;20042;-91
2022/12/07 02:22:38;;;;;;;17.67;7.80;;;;;;;4.03;90.26;100060.66;4910147;28;20050;-91
2022/12/07 02:25:49;;;;;;;15.20;7.22;;;;;;;3.90;90.29;100049.16;4967705;28;20046;-91
2022/12/07 02:28:29;;;;;;;12.60;7.22;;;;;;;3.93;90.46;100041.09;4923302;28;20037;-90
2022/12/07 02:30:59;;;;;;;14.27;8.35;;;;;;;3.99;90.56;100037.25;4974871;28;20067;-90
2022/12/07 02:33:32;;;;;;;23.52;11.05;;;;;;;4.02;90.88;100029.19;4982409;28;20052;-91
2022/12/07 02:36:16;;;;;;;20.47;9.53;;;;;;;4.04;91.04;100008.94;4989114;28;20061;-91
2022/12/07 02:39:07;;;;;;;18.80;10.27;;;;;;;4.04;90.87;99999.25;4969955;28;20528;-89
2022/12/07 02:41:38;;;;;;;13.40;7.65;;;;;;;4.11;90.31;99991.88;4942853;28;20492;-90
2022/12/07 02:44:07;;;;;;;12.70;7.85;;;;;;;4.12;90.12;99991.81;4950338;28;20885;-90
2022/12/07 02:46:38;;;;;;;11.70;7.07;;;;;;;4.17;89.86;100001.16;4948294;28;20520;-90
2022/12/07 02:49:05;;;;;;;12.85;7.68;;;;;;;4.13;90.47;100030.28;4977941;28;20050;-91
2022/12/07 02:51:33;;;;;;;16.65;9.15;;;;;;;4.00;90.48;100037.19;4980044;28;20388;-91
2022/12/07 02:54:00;;;;;;;13.77;7.80;;;;;;;4.01;90.32;100033.59;4981716;28;20508;-91
2022/12/07 02:56:44;;;;;;;13.65;7.82;;;;;;;3.96;90.58;100025.16;4972126;28;20049;-90
2022/12/07 02:59:48;;;;;;;16.98;8.73;;;;;;;3.95;90.86;100025.25;5004765;28;20042;-91
2022/12/07 03:02:40;;;;;;;12.35;7.97;;;;;;;3.94;90.78;100034.91;4957606;28;20049;-91
2022/12/07 03:05:10;;;;;;;17.33;8.52;;;;;;;4.01;90.64;100027.50;4979170;28;20054;-91
2022/12/07 03:07:55;;;;;;;15.65;8.38;;;;;;;4.03;90.51;100028.28;4963584;28;20105;-90
2022/12/07 03:10:41;;;;;;;13.30;7.05;;;;;;;4.06;90.62;100015.78;4967422;28;20073;-91
2022/12/07 03:13:37;;;;;;;13.85;7.10;;;;;;;4.02;90.66;100021.31;4965707;28;20482;-87
2022/12/07 03:16:16;;;;;;;12.73;7.05;;;;;;;4.00;91.28;100010.91;4956032;28;20051;-91
2022/12/07 03:18:58;;;;;;;15.45;7.82;;;;;;;4.01;91.22;100004.69;4977673;28;20049;-91
2022/12/07 03:21:28;;;;;;;18.33;9.20;;;;;;;4.06;91.09;100000.03;4980353;28;20486;-91
2022/12/07 03:23:57;;;;;;;19.52;9.70;;;;;;;4.07;91.15;100019.25;4934077;28;20086;-90
2022/12/07 03:26:30;;;;;;;22.90;8.57;;;;;;;4.07;90.77;100033.28;4948911;28;20047;-91
2022/12/07 03:28:58;;;;;;;;;;;;;;;3.93;91.18;100027.97;4969236;28;20053;-89
2022/12/07 03:31:29;;;;;;;15.18;8.00;;;;;;;3.94;91.37;100034.06;4984410;28;20377;-90
2022/12/07 03:33:58;;;;;;;13.70;8.13;;;;;;;4.00;91.24;100038.97;4986168;28;20105;-91
2022/12/07 03:36:37;;;;;;;13.43;7.90;;;;;;;3.96;91.42;100035.66;4963076;28;20045;-91
2022/12/07 03:39:17;;;;;;;15.07;8.18;;;;;;;4.01;91.03;100038.88;4966745;28;20047;-91
2022/12/07 03:41:44;;;;;;;14.77;7.85;;;;;;;4.06;91.08;100028.94;4949496;28;20042;-90
2022/12/07 03:44:12;;;;;;;14.30;8.68;;;;;;;4.07;90.87;100028.00;4966382;28;20501;-91
2022/12/07 03:46:47;;;;;;;11.68;7.57;;;;;;;4.02;91.10;100011.66;4979845;28;20049;-90
2022/12/07 03:49:31;;;;;;;13.10;7.25;;;;;;;3.97;91.70;100015.47;4972485;28;20055;-91
2022/12/07 03:52:02;;;;;;;13.25;7.63;;;;;;;4.05;91.61;100022.00;4914112;28;20095;-91
2022/12/07 03:55:03;;;;;;;15.30;8.15;;;;;;;3.98;91.63;100019.81;4947518;28;20047;-91
2022/12/07 03:57:32;;;;;;;15.82;7.90;;;;;;;4.02;91.93;100021.31;4944484;28;20512;-91
2022/12/07 04:00:00;;;;;;;16.40;7.55;;;;;;;4.02;92.13;100023.94;4997590;28;20054;-91
2022/12/07 04:02:37;;;;;;;16.38;8.43;;;;;;;4.03;92.04;100021.22;4988249;28;20043;-91
2022/12/07 04:05:05;;;;;;;16.50;8.38;;;;;;;4.04;92.12;100020.28;4930598;28;20410;-90
2022/12/07 04:07:31;;;;;;;20.83;10.23;;;;;;;4.05;92.45;100008.03;4947533;28;20532;-91
2022/12/07 04:09:58;;;;;;;26.23;12.02;;;;;;;4.04;92.67;100012.41;4939626;28;20066;-91
2022/12/07 04:12:26;;;;;;;37.63;18.55;;;;;;;4.06;92.32;100007.06;4946028;28;20067;-91
2022/12/07 04:14:53;;;;;;;32.40;16.33;;;;;;;4.06;92.30;100010.53;4942612;28;20117;-91
2022/12/07 04:17:20;;;;;;;25.75;14.10;;;;;;;4.06;92.39;100009.69;4987299;28;20698;-90
2022/12/07 04:19:47;;;;;;;22.58;12.38;;;;;;;4.09;92.28;100012.13;4943027;28;20527;-90
2022/12/07 04:22:13;;;;;;;21.13;12.00;;;;;;;4.05;92.52;100002.75;4950111;28;20158;-91
2022/12/07 04:24:40;;;;;;;19.27;12.40;;;;;;;4.06;92.16;100007.91;4935901;28;20056;-91
2022/12/07 04:27:07;;;;;;;18.73;12.30;;;;;;;4.08;91.74;100007.84;4966219;28;20042;-91
2022/12/07 04:29:34;;;;;;;17.42;10.10;;;;;;;4.10;91.83;100005.97;4981908;28;20101;-91
2022/12/07 04:32:01;;;;;;;16.67;9.80;;;;;;;4.09;91.60;100002.47;4950390;28;20038;-91
2022/12/07 04:34:28;;;;;;;22.13;10.05;;;;;;;4.11;91.43;99997.13;4947532;28;20185;-91
2022/12/07 04:36:55;;;;;;;17.65;9.02;;;;;;;4.05;92.10;99994.88;4947058;28;20081;-91
2022/12/07 04:39:25;;;;;;;19.05;8.70;;;;;;;4.03;92.38;99992.34;4973232;28;20038;-91
2022/12/07 04:41:52;;;;;;;16.35;9.70;;;;;;;4.03;92.52;99987.06;4979398;28;20132;-91
2022/12/07 04:44:20;;;;;;;18.88;10.15;;;;;;;4.06;92.36;99989.50;4976980;28;20484;-90
2022/12/07 04:46:47;;;;;;;19.27;9.93;;;;;;;4.06;92.34;99986.88;4932365;28;20042;-91
2022/12/07 04:49:32;;;;;;;23.30;11.65;;;;;;;4.10;91.95;99993.66;4944818;28;20371;-91
2022/12/07 04:52:18;;;;;;;17.10;9.00;;;;;;;4.12;92.06;100001.44;4950163;28;20508;-90
2022/12/07 04:54:44;;;;;;;16.80;9.23;;;;;;;4.09;92.20;99999.00;4967796;28;20062;-91
2022/12/07 04:57:11;;;;;;;19.92;9.02;;;;;;;4.08;92.26;99986.81;4952209;28;20081;-90
2022/12/07 04:59:38;;;;;;;16.63;8.75;;;;;;;3.99;92.75;99977.66;4929518;28;20054;-90
2022/12/07 05:02:11;;;;;;;15.90;8.70;;;;;;;4.03;92.43;99976.56;4930987;28;20847;-91
2022/12/07 05:04:38;;;;;;;14.35;8.77;;;;;;;4.03;92.53;99973.09;4953335;28;20452;-90
2022/12/07 05:07:05;;;;;;;16.40;8.52;;;;;;;4.09;92.22;99972.72;4954098;28;20370;-94
2022/12/07 05:09:32;;;;;;;17.80;9.45;;;;;;;4.16;92.04;99979.31;4973043;28;20096;-94
2022/12/07 05:11:59;;;;;;;27.92;10.55;;;;;;;4.18;92.18;99972.19;4938297;28;20060;-90
2022/12/07 05:14:25;;;;;;;14.73;9.23;;;;;;;4.19;92.18;99971.22;4996114;28;20062;-89
2022/12/07 05:16:53;;;;;;;20.63;10.48;;;;;;;4.24;91.61;99963.91;4955093;28;20046;-87
2022/12/07 05:19:20;;;;;;;19.30;10.52;;;;;;;4.30;91.36;99970.59;4934939;28;20066;-90
2022/12/07 05:21:47;;;;;;;18.90;10.45;;;;;;;4.33;91.01;99973.06;4950872;28;20046;-89
2022/12/07 05:24:15;;;;;;;16.67;9.38;;;;;;;4.32;91.03;99979.22;4950802;28;20106;-93
2022/12/07 05:26:42;;;;;;;17.65;9.88;;;;;;;4.33;91.00;99984.41;4952730;28;20149;-93
2022/12/07 05:29:14;;;;;;;15.85;9.32;;;;;;;4.22;91.22;99999.97;4978437;28;20052;-94
2022/12/07 05:31:41;;;;;;;15.95;9.05;;;;;;;4.22;91.50;99993.84;4945891;28;20130;-91
2022/12/07 05:34:09;;;;;;;16.58;9.50;;;;;;;4.23;91.26;99988.53;4951865;28;20167;-90
2022/12/07 05:36:36;;;;;;;16.98;9.43;;;;;;;4.23;91.61;99985.06;4980717;28;20117;-90
2022/12/07 05:39:03;;;;;;;18.45;9.02;;;;;;;4.19;91.93;99987.00;4934276;28;20062;-90
2022/12/07 05:44:15;;;;;;;19.10;9.23;;;;;;;4.14;92.31;99997.78;4961797;28;20039;-90
2022/12/07 05:46:42;;;;;;;17.67;9.75;;;;;;;4.12;92.37;99998.81;4931911;28;20043;-90
2022/12/07 05:49:09;;;;;;;19.48;9.07;;;;;;;4.09;93.11;99999.00;4920530;28;20043;-91
2022/12/07 05:51:36;;;;;;;15.45;9.13;;;;;;;4.10;92.87;99993.66;4950864;28;20057;-90
2022/12/07 05:54:02;;;;;;;19.73;10.25;;;;;;;4.13;92.52;99997.91;4928677;28;20498;-91
2022/12/07 05:56:29;;;;;;;17.05;9.63;;;;;;;4.09;92.98;100007.72;4946299;28;20050;-90
2022/12/07 05:59:29;;;;;;;18.08;9.52;;;;;;;4.10;92.91;100011.22;4937042;28;20680;-90
2022/12/07 06:01:54;;;;;;;13.17;8.23;;;;;;;4.06;93.13;100007.91;4927908;28;20143;-90
2022/12/07 06:04:21;;;;;;;18.17;9.43;;;;;;;4.10;92.88;100005.97;4963704;28;20438;-90
2022/12/07 06:06:48;;;;;;;15.02;8.93;;;;;;;4.14;92.40;100008.28;4968240;28;20054;-91
2022/12/07 06:09:15;;;;;;;16.48;8.88;;;;;;;4.14;92.67;100008.28;4986275;28;20082;-91
2022/12/07 06:14:28;;;;;;;16.88;9.60;;;;;;;4.10;92.96;100006.81;4967319;28;20718;-90
2022/12/07 06:16:54;;;;;;;18.52;8.90;;;;;;;4.16;92.44;100002.13;4955249;28;20058;-89
2022/12/07 06:19:21;;;;;;;17.85;9.13;;;;;;;4.18;92.35;100000.25;4982921;28;20058;-90
2022/12/07 06:21:48;;;;;;;18.23;9.45;;;;;;;4.14;92.79;99997.78;5002223;28;20047;-90
2022/12/07 06:24:16;;;;;;;18.85;9.88;;;;;;;4.18;92.68;100000.25;4966352;28;20456;-90
2022/12/07 06:26:43;;;;;;;17.33;9.93;;;;;;;4.18;92.51;100003.72;4985241;28;20062;-89
2022/12/07 06:29:10;;;;;;;20.25;10.75;;;;;;;4.20;92.19;100001.84;4954671;28;20047;-89
2022/12/07 06:31:37;;;;;;;16.73;9.77;;;;;;;4.23;92.22;99998.19;4979025;28;20039;-88
2022/12/07 06:34:06;;;;;;;19.65;10.77;;;;;;;4.22;92.34;99996.50;4987201;28;20094;-90
2022/12/07 06:36:33;;;;;;;25.08;10.55;;;;;;;4.22;91.98;99997.31;4987238;28;20117;-89
2022/12/07 06:39:00;;;;;;;16.17;9.75;;;;;;;4.28;92.01;100007.50;4946479;28;20498;-89
2022/12/07 06:41:27;;;;;;;19.30;9.23;;;;;;;4.26;91.49;100004.09;5001515;28;20038;-88
2022/12/07 06:43:54;;;;;;;18.80;9.93;;;;;;;4.31;91.27;100016.97;5001173;28;20074;-88
2022/12/07 06:46:22;;;;;;;20.20;9.80;;;;;;;4.33;91.26;100017.75;5001226;28;20105;-88
2022/12/07 06:48:49;;;;;;;18.83;10.25;;;;;;;4.27;92.29;100015.47;4972834;28;20389;-88
2022/12/07 06:51:16;;;;;;;17.23;9.95;;;;;;;4.24;92.74;100013.84;4963472;28;20536;-89
2022/12/07 06:53:43;;;;;;;18.70;9.60;;;;;;;4.22;93.08;100014.88;5002865;28;20050;-88
2022/12/07 06:56:09;;;;;;;16.77;9.98;;;;;;;4.24;93.08;100005.97;4953390;28;20096;-88
2022/12/07 06:58:36;;;;;;;19.92;10.27;;;;;;;4.23;92.73;100008.72;4952526;28;20046;-88
2022/12/07 07:01:11;;;;;;;16.58;10.10;;;;;;;4.26;91.16;100011.16;4971833;28;20383;-87
2022/12/07 07:03:38;;;;;;;17.60;9.18;;;;;;;4.27;91.59;100018.09;4939996;28;20501;-87
2022/12/07 07:06:07;;;;;;;22.40;10.95;;;;;;;4.25;92.14;100014.69;4936484;28;21106;-86
2022/12/07 07:08:35;;;;;;;22.27;10.77;;;;;;;4.25;92.43;100012.06;4951284;28;20074;-86
2022/12/07 07:11:02;;;;;;;20.13;11.52;;;;;;;4.22;92.63;100007.84;4950848;28;20502;-86
2022/12/07 07:13:29;;;;;;;17.17;9.75;;;;;;;4.21;92.52;100015.84;4946634;28;20058;-86
2022/12/07 07:15:56;;;;;;;20.55;10.52;;;;;;;4.21;92.51;100014.06;4945001;28;20053;-87
2022/12/07 07:18:23;;;;;;;20.02;10.48;;;;;;;4.22;92.53;100012.25;4920001;28;20451;-87
2022/12/07 07:20:52;;;;;;;17.42;9.30;;;;;;;4.22;92.34;100015.72;4947732;28;20066;-86
2022/12/07 07:23:20;;;;;;;18.23;10.20;;;;;;;4.28;92.03;100012.75;4984407;28;20042;-86
2022/12/07 07:25:47;;;;;;;16.88;9.77;;;;;;;4.31;91.71;100019.59;4967514;28;20039;-86
2022/12/07 07:28:15;;;;;;;17.33;9.63;;;;;;;4.29;91.40;100022.31;4979860;28;20050;-86
2022/12/07 07:30:41;;;;;;;22.05;10.45;;;;;;;4.30;91.27;100024.03;4960644;28;20130;-86
2022/12/07 07:33:09;;;;;;;16.42;9.50;;;;;;;4.32;91.33;100021.28;4967801;28;20498;-87
2022/12/07 07:35:36;;;;;;;20.13;11.13;;;;;;;4.28;90.76;100022.44;4968826;28;20410;-87
2022/12/07 07:38:03;;;;;;;17.63;10.38;;;;;;;4.29;91.48;100027.56;4981784;28;20486;-86
2022/12/07 07:40:30;;;;;;;18.50;10.82;;;;;;;4.24;91.92;100023.53;4968910;28;20478;-86
2022/12/07 07:42:57;;;;;;;18.25;10.40;;;;;;;4.22;91.88;100025.41;4954760;28;20054;-87
2022/12/07 07:45:26;;;;;;;20.70;10.98;;;;;;;4.21;91.91;100021.09;4976037;28;20081;-87
2022/12/07 07:47:52;;;;;;;21.63;11.48;;;;;;;4.23;92.08;100022.69;4969084;28;20054;-86
2022/12/07 07:50:20;;;;;;;16.70;9.43;;;;;;;4.26;91.61;100026.94;4983373;28;20038;-85
2022/12/07 07:52:47;;;;;;;15.48;9.35;;;;;;;4.25;90.69;100030.47;4938591;28;20038;-86
2022/12/07 07:55:14;;;;;;;18.15;8.93;;;;;;;4.22;91.15;100030.66;4981996;28;20107;-86
2022/12/07 07:57:44;;;;;;;16.95;9.73;;;;;;;4.22;91.48;100035.91;4964612;28;20525;-87
2022/12/07 08:00:18;;;;;;;19.00;10.40;;;;;;;4.24;91.72;100034.88;4940933;28;20121;-87
2022/12/07 08:02:45;;;;;;;19.98;10.65;;;;;;;4.24;91.47;100041.94;4957976;28;20550;-86
2022/12/07 08:05:13;;;;;;;18.58;9.75;;;;;;;4.29;91.43;100038.09;4951433;28;20561;-87
2022/12/07 08:07:40;;;;;;;19.35;10.40;;;;;;;4.30;91.40;100045.06;4983872;28;20046;-86
2022/12/07 08:10:09;;;;;;;15.98;9.32;;;;;;;4.31;91.24;100041.47;4953640;28;20104;-86
2022/12/07 08:13:10;;;;;;;15.25;9.07;;;;;;;4.30;91.19;100034.53;4977364;28;20054;-87
2022/12/07 08:15:29;;;;;;;23.95;11.20;;;;;;;4.34;91.11;100040.44;4967687;28;20047;-88
2022/12/07 08:17:56;;;;;;;21.23;10.13;;;;;;;4.34;91.25;100037.81;4956976;28;20061;-87
2022/12/07 08:20:23;;;;;;;21.40;10.77;;;;;;;4.37;91.13;100039.44;4963984;28;20502;-87
2022/12/07 08:22:49;;;;;;;20.00;10.50;;;;;;;4.38;90.86;100038.50;4934410;28;20126;-89
2022/12/07 08:25:16;;;;;;;19.25;10.05;;;;;;;4.39;90.70;100048.91;4948858;28;20045;-86
2022/12/07 08:27:43;;;;;;;22.00;10.82;;;;;;;4.40;90.67;100041.88;4947035;28;20490;-87
2022/12/07 08:30:10;;;;;;;22.63;10.88;;;;;;;4.38;91.25;100039.34;4956189;28;20047;-87
2022/12/07 08:32:37;;;;;;;20.65;9.98;;;;;;;4.39;90.82;100043.66;4934609;28;20049;-87
2022/12/07 08:35:04;;;;;;;21.90;10.30;;;;;;;4.45;90.86;100045.06;4989745;28;20572;-87
2022/12/07 08:37:31;;;;;;;20.15;10.50;;;;;;;4.47;91.17;100038.78;4950288;28;20495;-87
2022/12/07 08:39:58;;;;;;;20.27;10.98;;;;;;;4.49;90.74;100042.16;4971007;28;20047;-87
2022/12/07 08:42:29;;;;;;;20.20;11.77;;;;;;;4.52;90.52;100043.75;4947399;28;20068;-87
2022/12/07 08:44:56;;;;;;;19.27;10.18;;;;;;;4.50;90.56;100033.34;4935605;28;20053;-87
2022/12/07 08:47:24;;;;;;;22.30;11.82;;;;;;;4.55;90.17;100038.31;4947761;28;20098;-87
2022/12/07 08:49:52;;;;;;;20.15;11.45;;;;;;;4.55;90.43;100033.94;4948097;28;20058;-87
2022/12/07 08:52:18;;;;;;;25.83;12.60;;;;;;;4.60;90.33;100033.63;4945551;28;20110;-88
2022/12/07 08:54:45;;;;;;;22.52;11.43;;;;;;;4.57;90.42;100033.81;4947493;28;20066;-87
2022/12/07 08:57:12;;;;;;;19.83;11.55;;;;;;;4.59;90.92;100042.47;4949246;28;20372;-88
2022/12/07 08:59:39;;;;;;;23.65;11.88;;;;;;;4.61;90.83;100029.22;4951963;28;20048;-87
2022/12/07 09:02:06;;;;;;;24.85;12.60;;;;;;;4.65;90.96;100038.59;4998723;28;20483;-88
2022/12/07 09:04:33;;;;;;;23.48;11.88;;;;;;;4.68;90.71;100035.78;4963990;28;20397;-87
2022/12/07 09:06:59;;;;;;;25.75;12.25;;;;;;;4.70;90.58;100034.75;4960380;28;20101;-87
2022/12/07 09:09:26;;;;;;;23.60;12.52;;;;;;;4.71;90.60;100031.22;4937895;28;20050;-87
2022/12/07 09:11:53;;;;;;;22.95;11.00;;;;;;;4.73;90.42;100039.84;4948968;28;20043;-88
2022/12/07 09:14:20;;;;;;;19.17;10.88;;;;;;;4.76;90.55;100030.94;4920086;28;20054;-88
2022/12/07 09:16:46;;;;;;;19.58;10.38;;;;;;;4.78;90.38;100031.66;4947588;28;20092;-87
2022/12/07 09:19:13;;;;;;;21.60;11.15;;;;;;;4.80;90.35;100037.69;4995215;28;20053;-88
2022/12/07 09:21:40;;;;;;;23.13;11.32;;;;;;;4.82;90.25;100037.59;4982667;28;20043;-88
2022/12/07 09:24:07;;;;;;;20.05;10.57;;;;;;;4.83;90.29;100042.75;4983155;28;20049;-87
2022/12/07 09:26:34;;;;;;;20.13;10.07;;;;;;;4.84;90.37;100033.94;4966606;28;20047;-87
2022/12/07 09:29:02;;;;;;;21.20;11.50;;;;;;;4.84;90.13;100030.47;4966788;28;20054;-87
2022/12/07 09:31:29;;;;;;;25.58;11.43;;;;;;;4.87;90.23;100038.16;5000071;28;20129;-89
2022/12/07 09:33:57;;;;;;;22.70;11.02;;;;;;;4.86;90.08;100032.06;4968222;28;20057;-89
2022/12/07 09:36:25;;;;;;;20.25;10.43;;;;;;;4.86;90.08;100032.06;4973554;28;20046;-87
2022/12/07 09:38:52;;;;;;;20.58;10.30;;;;;;;4.85;89.97;100037.41;4978778;28;20046;-88
2022/12/07 09:41:20;;;;;;;22.23;10.30;;;;;;;4.84;90.09;100041.81;4951024;28;20046;-87
2022/12/07 09:43:47;;;;;;;20.77;10.98;;;;;;;4.87;90.19;100039.00;4983566;28;20490;-86
2022/12/07 09:46:17;;;;;;;22.25;10.38;;;;;;;4.88;90.49;100035.41;4971325;28;20485;-87
2022/12/07 09:48:44;;;;;;;19.20;10.50;;;;;;;4.89;90.17;100029.22;4979282;28;20101;-88
2022/12/07 09:51:24;;;;;;;21.15;11.00;;;;;;;4.87;90.22;100032.91;4934358;28;20101;-87
2022/12/07 09:53:54;;;;;;;20.48;10.15;;;;;;;4.92;90.15;100038.72;4908386;28;20051;-87
2022/12/07 09:56:21;;;;;;;22.83;11.20;;;;;;;4.94;90.22;100037.69;4934478;28;20481;-87
2022/12/07 09:58:49;;;;;;;22.98;10.43;;;;;;;4.93;90.12;100035.13;4952067;28;20054;-87
2022/12/07 10:01:21;;;;;;;23.85;10.77;;;;;;;4.89;90.10;100031.84;4919600;28;20043;-87
2022/12/07 10:03:52;;;;;;;19.83;9.88;;;;;;;4.92;89.90;100030.81;4948035;28;20371;-86
2022/12/07 10:06:19;;;;;;;22.98;11.85;;;;;;;4.90;89.83;100025.66;4966793;28;20046;-87
2022/12/07 10:08:46;;;;;;;20.77;10.48;;;;;;;4.91;90.17;100029.13;4933179;28;20130;-87
2022/12/07 10:11:14;;;;;;;18.20;9.80;;;;;;;4.89;90.11;100018.69;4934686;28;20046;-87
2022/12/07 10:13:43;;;;;;;18.10;8.98;;;;;;;4.92;90.29;100023.78;4980872;28;20545;-88
2022/12/07 10:16:28;;;;;;;22.52;10.35;;;;;;;4.92;90.10;100017.66;4966420;28;20050;-87
2022/12/07 10:18:55;;;;;;;20.13;9.82;;;;;;;4.96;90.41;100019.16;4979719;28;20501;-87
2022/12/07 10:21:26;;;;;;;19.38;9.93;;;;;;;4.96;90.24;100013.88;4963531;28;20497;-87
2022/12/07 10:24:25;;;;;;;19.13;9.82;;;;;;;4.91;90.04;100019.47;4964941;28;20120;-87
2022/12/07 10:26:53;;;;;;;22.05;10.88;;;;;;;4.98;90.10;100020.75;4901982;28;20431;-88
2022/12/07 10:29:34;;;;;;;20.60;10.68;;;;;;;4.92;89.55;100015.03;5000458;28;20042;-88
2022/12/07 10:32:04;;;;;;;19.63;10.10;;;;;;;4.96;89.33;100014.75;4960796;28;20363;-88
2022/12/07 10:34:34;;;;;;;18.70;10.10;;;;;;;4.96;89.59;100014.75;4950554;28;20530;-87
2022/12/07 10:37:17;;;;;;;19.35;8.52;;;;;;;5.00;89.84;99999.59;4984219;28;20049;-87
2022/12/07 10:39:45;;;;;;;18.02;9.40;;;;;;;5.02;89.85;99995.09;4964790;28;20047;-87
2022/12/07 10:42:31;;;;;;;20.35;10.25;;;;;;;4.99;89.62;99995.28;4987756;28;20062;-87
2022/12/07 10:45:09;;;;;;;20.13;10.07;;;;;;;5.00;89.81;99989.09;4927788;28;20043;-87
2022/12/07 10:47:44;;;;;;;21.02;9.55;;;;;;;5.06;89.73;99990.47;4979855;28;20054;-87
2022/12/07 10:50:40;;;;;;;19.27;9.70;;;;;;;5.03;89.86;99995.94;4957499;28;20039;-88
2022/12/07 10:53:09;;;;;;;17.00;9.43;;;;;;;5.09;89.78;99996.41;4965851;28;20054;-88
2022/12/07 10:56:18;;;;;;;18.67;10.32;;;;;;;5.04;90.04;99990.59;4967078;28;20376;-87
2022/12/07 10:59:16;;;;;;;19.33;9.57;;;;;;;5.05;89.79;99983.53;4907984;28;20457;-88
2022/12/07 11:02:13;;;;;;;20.23;9.73;;;;;;;5.07;89.57;99990.38;4938793;28;20042;-87
2022/12/07 11:05:05;;;;;;;19.50;9.90;;;;;;;5.04;89.19;99987.09;4958930;28;20049;-88
2022/12/07 11:07:47;;;;;;;19.20;9.82;;;;;;;5.06;89.21;99982.56;4956250;28;20038;-88
2022/12/07 11:10:53;;;;;;;18.65;9.38;;;;;;;5.05;89.21;99986.16;4962622;28;20050;-88
2022/12/07 11:13:24;;;;;;;17.10;8.98;;;;;;;5.10;89.65;99987.56;4907914;28;20056;-88
2022/12/07 11:16:18;;;;;;;18.52;10.05;;;;;;;5.08;89.35;99986.81;4920103;28;20043;-89
2022/12/07 11:18:53;;;;;;;19.92;9.88;;;;;;;5.13;89.07;99982.09;4932306;28;20105;-88
2022/12/07 11:21:36;;;;;;;19.80;10.00;;;;;;;5.12;88.90;99972.53;4976797;28;20486;-88
2022/12/07 11:24:16;;;;;;;19.05;9.02;;;;;;;5.09;88.98;99975.34;4935089;28;20134;-87
2022/12/07 11:26:58;;;;;;;21.55;10.75;;;;;;;5.11;89.08;99969.97;4985161;28;20054;-88
2022/12/07 11:29:51;;;;;;;21.38;10.02;;;;;;;5.08;89.18;99965.75;4937927;28;20424;-88
2022/12/07 11:32:49;;;;;;;21.60;10.00;;;;;;;5.08;89.22;99967.53;4920115;28;20513;-89
2022/12/07 11:35:29;;;;;;;23.75;11.30;;;;;;;5.11;89.39;99962.91;4923925;28;20046;-88
2022/12/07 11:37:59;;;;;;;21.77;9.57;;;;;;;5.14;89.34;99959.25;4918077;28;20054;-88
2022/12/07 11:40:29;;;;;;;21.83;10.48;;;;;;;5.19;89.08;99967.69;4947048;28;20047;-88
2022/12/07 11:43:09;;;;;;;22.50;11.57;;;;;;;5.16;89.28;99954.72;4949396;28;20061;-88
2022/12/07 11:45:44;;;;;;;20.05;10.73;;;;;;;5.17;89.08;99949.38;4932563;28;20496;-88
2022/12/07 11:48:31;;;;;;;19.75;10.25;;;;;;;5.15;88.92;99964.41;4968026;28;20059;-89
2022/12/07 11:51:00;;;;;;;18.02;9.70;;;;;;;5.18;88.94;99952.84;4941519;28;20403;-88